createdAt,value
2018-05-25T00:00:39.504Z,86.19
2018-05-25T00:01:39.504Z,85.91
2018-05-25T00:02:39.480Z,85.81
2018-05-25T00:03:39.483Z,85.81
2018-05-25T00:04:39.479Z,86.00
2018-05-25T00:05:39.465Z,86.10
2018-05-25T00:06:39.512Z,86.10
2018-05-25T00:07:39.454Z,86.19
2018-05-25T00:08:39.449Z,85.91
2018-05-25T00:09:39.432Z,86.10
2018-05-25T00:10:39.436Z,86.00
2018-05-25T00:11:39.423Z,85.91
2018-05-25T00:12:39.539Z,85.81
2018-05-25T00:13:39.408Z,85.91
2018-05-25T00:14:39.382Z,86.10
2018-05-25T00:15:39.402Z,86.19
2018-05-25T00:16:39.381Z,85.91
2018-05-25T00:17:39.358Z,86.00
2018-05-25T00:18:39.359Z,86.00
2018-05-25T00:19:39.351Z,85.91
2018-05-25T00:20:39.339Z,86.10
2018-05-25T00:21:39.345Z,86.38
2018-05-25T00:22:39.339Z,86.19
2018-05-25T00:23:39.329Z,85.91
2018-05-25T00:24:39.349Z,86.10
2018-05-25T00:25:39.307Z,86.10
2018-05-25T00:26:39.293Z,86.38
2018-05-25T00:27:39.301Z,86.29
2018-05-25T00:28:39.286Z,85.62
2018-05-25T00:29:39.661Z,85.62
2018-05-25T00:30:39.263Z,85.62
2018-05-25T00:31:39.264Z,85.91
2018-05-25T00:32:39.252Z,85.91
2018-05-25T00:33:39.248Z,85.81
2018-05-25T00:34:39.229Z,86.10
2018-05-25T00:35:39.238Z,85.42
2018-05-25T00:36:39.216Z,85.62
2018-05-25T00:37:39.203Z,85.24
2018-05-25T00:38:39.205Z,85.14
2018-05-25T00:39:39.187Z,85.14
2018-05-25T00:40:39.634Z,85.71
2018-05-25T00:41:39.170Z,85.42
2018-05-25T00:42:39.171Z,85.62
2018-05-25T00:43:39.164Z,85.52
2018-05-25T00:44:39.149Z,86.10
2018-05-25T00:45:39.151Z,85.91
2018-05-25T00:46:39.166Z,85.91
2018-05-25T00:47:39.150Z,85.81
2018-05-25T00:48:40.101Z,85.91
2018-05-25T00:49:39.146Z,86.10
2018-05-25T00:50:39.102Z,85.91
2018-05-25T00:51:39.180Z,86.58
2018-05-25T00:52:39.091Z,86.25
2018-05-25T00:53:39.098Z,86.05
2018-05-25T00:54:39.071Z,85.86
2018-05-25T00:55:39.060Z,85.86
2018-05-25T00:56:39.076Z,86.25
2018-05-25T00:57:39.224Z,86.63
2018-05-25T00:58:39.051Z,86.44
2018-05-25T00:59:39.034Z,86.25
2018-05-25T01:00:42.147Z,86.44
2018-05-25T01:01:39.017Z,86.44
2018-05-25T01:02:39.014Z,86.05
2018-05-25T01:03:39.015Z,86.54
2018-05-25T01:04:39.650Z,86.44
2018-05-25T01:05:38.982Z,86.44
2018-05-25T01:06:38.975Z,86.05
2018-05-25T01:07:38.975Z,86.25
2018-05-25T01:08:38.996Z,86.34
2018-05-25T01:09:43.636Z,86.25
2018-05-25T01:10:45.890Z,85.96
2018-05-25T01:12:14.648Z,86.05
2018-05-25T01:12:44.386Z,85.77
2018-05-25T01:13:42.127Z,85.86
2018-05-25T01:15:10.683Z,86.34
2018-05-25T01:16:05.287Z,85.86
2018-05-25T02:49:11.556Z,86.97
2018-05-25T02:50:11.317Z,87.16
2018-05-25T02:51:11.111Z,86.78
2018-05-25T02:52:12.148Z,86.11
2018-05-25T02:53:11.227Z,86.49
2018-05-25T02:54:11.115Z,86.58
2018-05-25T02:55:11.070Z,86.54
2018-05-25T02:56:11.047Z,86.72
2018-05-25T02:57:11.474Z,86.49
2018-05-25T02:58:11.027Z,86.40
2018-05-25T02:59:11.010Z,86.34
2018-05-25T03:00:12.514Z,86.44
2018-05-25T03:01:10.985Z,86.58
2018-05-25T03:02:11.023Z,86.40
2018-05-25T03:03:11.051Z,86.58
2018-05-25T03:04:11.208Z,86.05
2018-05-25T03:05:10.973Z,86.30
2018-05-25T03:06:10.961Z,86.44
2018-05-25T03:07:10.951Z,86.54
2018-05-25T03:08:11.058Z,85.86
2018-05-25T03:09:11.224Z,85.86
2018-05-25T03:10:15.547Z,86.25
2018-05-25T03:11:18.537Z,85.86
2018-05-25T03:46:52.547Z,87.16
2018-05-25T03:47:41.394Z,87.16
2018-05-25T03:48:42.102Z,86.97
2018-05-25T03:57:53.135Z,87.35
2018-05-25T03:58:52.835Z,87.35
2018-05-25T03:59:53.103Z,87.16
2018-05-25T04:00:52.232Z,87.26
2018-05-25T04:02:05.186Z,87.16
2018-05-25T04:02:52.191Z,86.78
2018-05-25T04:03:52.200Z,87.07
2018-05-25T04:04:52.164Z,86.58
2018-05-25T04:05:52.173Z,86.88
2018-05-25T04:06:52.290Z,87.16
2018-05-25T04:07:52.183Z,87.07
2018-05-25T04:08:52.291Z,86.88
2018-05-25T04:09:52.168Z,86.58
2018-05-25T04:10:52.146Z,86.40
2018-05-25T04:11:52.124Z,86.78
2018-05-25T04:12:52.119Z,86.58
2018-05-25T04:13:52.102Z,86.11
2018-05-25T04:14:52.083Z,86.68
2018-05-25T04:15:52.076Z,86.49
2018-05-25T04:16:52.305Z,86.49
2018-05-25T04:17:52.077Z,86.49
2018-05-25T04:18:52.276Z,86.30
2018-05-25T04:19:52.045Z,86.40
2018-05-25T04:20:52.032Z,86.01
2018-05-25T04:21:52.036Z,85.92
2018-05-25T04:22:52.344Z,85.82
2018-05-25T04:23:52.006Z,86.01
2018-05-25T04:24:52.002Z,86.21
2018-05-25T04:25:51.984Z,86.40
2018-05-25T04:26:51.980Z,86.01
2018-05-25T04:27:51.974Z,85.72
2018-05-25T04:28:51.995Z,85.53
2018-05-25T04:29:51.984Z,86.01
2018-05-25T04:30:51.944Z,85.92
2018-05-25T04:31:51.936Z,86.01
2018-05-25T04:32:51.959Z,86.01
2018-05-25T04:33:52.825Z,86.11
2018-05-25T04:34:51.917Z,85.34
2018-05-25T04:35:51.895Z,85.34
2018-05-25T04:36:54.344Z,85.15
2018-05-25T04:37:51.874Z,85.53
2018-05-25T04:38:51.882Z,85.92
2018-05-25T04:39:51.862Z,85.82
2018-05-25T04:40:51.856Z,86.01
2018-05-25T04:41:52.417Z,85.82
2018-05-25T04:42:53.828Z,85.72
2018-05-25T04:43:51.830Z,85.92
2018-05-25T04:44:51.842Z,86.01
2018-05-25T04:45:51.813Z,85.82
2018-05-25T04:46:51.809Z,85.82
2018-05-25T04:47:54.862Z,86.21
2018-05-25T04:48:52.025Z,85.63
2018-05-25T04:49:52.066Z,85.63
2018-05-25T04:50:51.796Z,85.05
2018-05-25T04:51:51.759Z,85.25
2018-05-25T04:52:51.875Z,85.72
2018-05-25T04:53:51.745Z,85.82
2018-05-25T04:54:51.753Z,85.72
2018-05-25T04:55:51.729Z,85.15
2018-05-25T04:56:51.775Z,84.91
2018-05-25T04:57:51.712Z,84.95
2018-05-25T04:58:51.912Z,85.05
2018-05-25T04:59:51.677Z,84.86
2018-05-25T05:00:51.703Z,85.05
2018-05-25T05:01:51.666Z,84.61
2018-05-25T05:02:51.703Z,84.77
2018-05-25T05:03:51.651Z,84.77
2018-05-25T05:04:51.735Z,84.95
2018-05-25T05:05:51.644Z,84.95
2018-05-25T05:06:51.634Z,85.00
2018-05-25T05:07:51.677Z,84.61
2018-05-25T05:08:51.773Z,84.58
2018-05-25T05:09:52.147Z,84.19
2018-05-25T05:10:51.604Z,84.58
2018-05-25T05:18:41.494Z,84.58
2018-05-25T05:19:41.062Z,84.95
2018-05-25T05:20:40.868Z,84.19
2018-05-25T05:21:40.560Z,84.58
2018-05-25T05:22:40.547Z,84.58
2018-05-25T05:23:40.553Z,84.00
2018-05-25T05:24:40.502Z,84.09
2018-05-25T05:25:40.483Z,84.00
2018-05-25T05:26:40.480Z,84.04
2018-05-25T05:27:40.458Z,83.91
2018-05-25T05:28:40.996Z,84.19
2018-05-25T05:29:40.461Z,84.23
2018-05-25T05:30:40.437Z,84.33
2018-05-25T05:31:40.450Z,84.42
2018-05-25T05:32:40.435Z,84.33
2018-05-25T05:33:41.032Z,84.04
2018-05-25T05:34:40.439Z,84.14
2018-05-25T05:35:40.401Z,84.42
2018-05-25T05:36:40.400Z,84.42
2018-05-25T05:37:40.387Z,84.33
2018-05-25T05:38:40.384Z,84.61
2018-05-25T05:39:40.384Z,84.42
2018-05-25T05:40:40.407Z,84.61
2018-05-25T05:41:40.357Z,83.85
2018-05-25T05:42:40.381Z,83.75
2018-05-25T05:43:40.335Z,84.52
2018-05-25T05:44:40.330Z,84.42
2018-05-25T05:45:40.313Z,84.14
2018-05-25T05:46:40.330Z,84.14
2018-05-25T05:47:40.306Z,84.52
2018-05-25T05:48:40.315Z,84.23
2018-05-25T05:49:40.311Z,84.14
2018-05-25T05:50:40.282Z,84.23
2018-05-25T05:51:40.272Z,84.33
2018-05-25T05:52:40.268Z,84.14
2018-05-25T05:53:40.287Z,84.52
2018-05-25T05:54:40.260Z,84.33
2018-05-25T05:55:40.249Z,84.33
2018-05-25T05:56:40.232Z,83.65
2018-05-25T05:57:40.238Z,83.80
2018-05-25T05:58:40.234Z,83.75
2018-05-25T05:59:40.213Z,83.98
2018-05-25T06:00:40.206Z,83.41
2018-05-25T06:01:40.192Z,83.70
2018-05-25T06:02:41.215Z,83.51
2018-05-25T06:03:40.211Z,83.60
2018-05-25T06:04:40.189Z,83.51
2018-05-25T06:05:40.202Z,83.60
2018-05-25T06:06:40.500Z,83.51
2018-05-25T06:07:40.136Z,83.70
2018-05-25T06:08:40.153Z,83.80
2018-05-25T06:09:40.119Z,83.22
2018-05-25T06:10:40.113Z,82.74
2018-05-25T06:11:40.122Z,82.93
2018-05-25T06:12:40.552Z,83.03
2018-05-25T06:13:40.100Z,82.54
2018-05-25T06:14:40.125Z,83.22
2018-05-25T06:15:40.080Z,82.74
2018-05-25T06:16:40.074Z,82.54
2018-05-25T06:17:40.070Z,82.64
2018-05-25T06:18:41.548Z,82.93
2018-05-25T06:19:40.346Z,82.64
2018-05-25T06:20:40.106Z,82.93
2018-05-25T06:21:40.207Z,83.12
2018-05-25T06:22:44.697Z,82.16
2018-05-25T06:23:41.012Z,81.87
2018-05-25T06:24:40.011Z,81.87
2018-05-25T06:25:41.018Z,81.68
2018-05-25T06:26:40.007Z,82.07
2018-05-25T06:27:41.177Z,81.97
2018-05-25T06:28:40.874Z,81.30
2018-05-25T06:29:39.960Z,81.49
2018-05-25T06:30:40.752Z,81.40
2018-05-25T06:31:39.980Z,81.30
2018-05-25T06:32:39.954Z,81.01
2018-05-25T06:33:40.067Z,80.91
2018-05-25T06:34:39.988Z,80.82
2018-05-25T06:35:39.938Z,80.73
2018-05-25T06:36:39.910Z,81.01
2018-05-25T06:37:39.916Z,80.91
2018-05-25T06:38:39.911Z,80.91
2018-05-25T06:39:39.949Z,80.63
2018-05-25T06:40:39.897Z,80.63
2018-05-25T06:41:39.881Z,80.82
2018-05-25T06:42:41.229Z,80.91
2018-05-25T06:43:39.873Z,80.91
2018-05-25T06:44:39.861Z,80.82
2018-05-25T06:45:41.909Z,80.91
2018-05-25T06:46:39.861Z,80.91
2018-05-25T06:47:39.961Z,80.91
2018-05-25T06:48:39.848Z,80.73
2018-05-25T06:49:39.824Z,80.91
2018-05-25T06:50:39.920Z,80.91
2018-05-25T06:51:39.803Z,80.91
2018-05-25T06:52:39.886Z,80.91
2018-05-25T06:53:39.816Z,81.01
2018-05-25T06:54:39.781Z,80.24
2018-05-25T06:55:39.787Z,81.01
2018-05-25T06:56:39.762Z,81.10
2018-05-25T06:57:41.039Z,80.91
2018-05-25T06:58:39.737Z,80.43
2018-05-25T06:59:39.751Z,80.43
2018-05-25T07:00:39.909Z,79.96
2018-05-25T07:01:39.741Z,79.96
2018-05-25T07:02:39.719Z,79.96
2018-05-25T07:03:40.062Z,80.43
2018-05-25T07:04:39.699Z,80.15
2018-05-25T07:05:39.684Z,80.53
2018-05-25T07:06:39.683Z,80.43
2018-05-25T07:07:39.670Z,80.24
2018-05-25T07:08:39.669Z,80.91
2018-05-25T07:09:40.016Z,80.73
2018-05-25T07:10:39.648Z,80.73
2018-05-25T07:11:39.728Z,81.20
2018-05-25T07:12:39.640Z,80.15
2018-05-25T07:13:39.620Z,80.82
2018-05-25T07:14:39.634Z,80.73
2018-05-25T07:15:39.647Z,80.73
2018-05-25T07:16:39.604Z,80.73
2018-05-25T07:17:39.618Z,80.63
2018-05-25T07:18:39.599Z,81.10
2018-05-25T07:19:39.573Z,80.91
2018-05-25T07:20:39.739Z,80.82
2018-05-25T07:21:39.571Z,80.76
2018-05-25T07:22:39.575Z,80.86
2018-05-25T07:23:39.543Z,80.96
2018-05-25T07:24:39.551Z,80.96
2018-05-25T07:25:39.534Z,80.96
2018-05-25T07:26:39.556Z,81.24
2018-05-25T07:27:39.720Z,80.57
2018-05-25T07:28:39.556Z,81.15
2018-05-25T07:29:39.534Z,80.57
2018-05-25T07:30:39.491Z,80.96
2018-05-25T07:31:39.524Z,80.96
2018-05-25T07:32:39.485Z,80.28
2018-05-25T07:33:39.551Z,80.47
2018-05-25T07:34:39.618Z,80.38
2018-05-25T07:35:39.457Z,80.47
2018-05-25T07:36:39.511Z,80.47
2018-05-25T07:37:39.486Z,80.38
2018-05-25T07:38:39.441Z,80.66
2018-05-25T07:39:39.458Z,80.42
2018-05-25T07:40:39.564Z,79.99
2018-05-25T07:41:39.414Z,79.32
2018-05-25T07:42:39.402Z,79.07
2018-05-25T07:43:39.417Z,79.55
2018-05-25T07:44:39.403Z,79.46
2018-05-25T07:45:39.401Z,80.13
2018-05-25T07:46:39.403Z,80.22
2018-05-25T07:47:39.371Z,80.32
2018-05-25T07:48:39.365Z,80.32
2018-05-25T07:49:39.425Z,80.42
2018-05-25T07:50:39.361Z,79.36
2018-05-25T07:51:39.352Z,79.55
2018-05-25T07:52:39.376Z,79.36
2018-05-25T07:53:39.341Z,79.36
2018-05-25T07:54:39.332Z,79.27
2018-05-25T07:55:39.322Z,79.46
2018-05-25T07:56:39.304Z,79.30
2018-05-25T07:57:39.341Z,79.69
2018-05-25T07:58:39.309Z,79.69
2018-05-25T07:59:39.305Z,78.92
2018-05-25T08:00:39.421Z,78.15
2018-05-25T08:01:39.278Z,78.34
2018-05-25T08:02:39.268Z,77.86
2018-05-25T08:03:39.261Z,77.29
2018-05-25T08:04:39.260Z,76.90
2018-05-25T08:05:39.279Z,77.09
2018-05-25T08:06:39.260Z,77.38
2018-05-25T08:07:39.245Z,77.09
2018-05-25T08:08:39.234Z,77.09
2018-05-25T08:09:39.348Z,76.90
2018-05-25T08:10:39.216Z,77.09
2018-05-25T08:11:39.208Z,76.61
2018-05-25T08:12:39.208Z,76.42
2018-05-25T08:13:39.197Z,76.14
2018-05-25T08:14:39.193Z,76.42
2018-05-25T08:15:39.213Z,75.94
2018-05-25T08:16:39.180Z,76.65
2018-05-25T08:17:39.175Z,76.14
2018-05-25T08:18:39.172Z,76.65
2018-05-25T08:19:39.163Z,77.13
2018-05-25T08:20:39.151Z,76.36
2018-05-25T08:21:39.586Z,76.84
2018-05-25T08:22:39.147Z,77.13
2018-05-25T08:23:39.127Z,76.75
2018-05-25T08:24:39.335Z,76.94
2018-05-25T08:25:39.125Z,77.04
2018-05-25T08:26:39.111Z,76.46
2018-05-25T08:27:39.109Z,76.75
2018-05-25T08:28:39.105Z,77.04
2018-05-25T08:29:39.090Z,77.04
2018-05-25T08:30:39.130Z,77.23
2018-05-25T08:31:39.118Z,76.07
2018-05-25T08:32:39.076Z,75.88
2018-05-25T08:33:39.066Z,75.69
2018-05-25T08:34:39.068Z,76.40
2018-05-25T08:35:39.149Z,75.82
2018-05-25T08:36:39.059Z,76.31
2018-05-25T08:37:39.076Z,76.40
2018-05-25T08:38:39.078Z,76.31
2018-05-25T08:39:39.044Z,75.73
2018-05-25T08:40:39.225Z,75.73
2018-05-25T08:41:39.210Z,76.21
2018-05-25T08:42:39.006Z,75.63
2018-05-25T08:43:39.026Z,75.63
2018-05-25T08:44:39.013Z,75.05
2018-05-25T08:45:39.001Z,75.15
2018-05-25T08:46:38.997Z,75.24
2018-05-25T08:47:39.024Z,74.76
2018-05-25T08:48:38.986Z,74.09
2018-05-25T08:49:38.992Z,73.99
2018-05-25T08:50:38.995Z,73.90
2018-05-25T08:51:38.973Z,73.74
2018-05-25T08:52:39.140Z,74.32
2018-05-25T08:53:39.041Z,74.22
2018-05-25T08:54:38.940Z,74.41
2018-05-25T08:55:38.940Z,74.16
2018-05-25T08:56:38.943Z,74.03
2018-05-25T08:57:38.931Z,74.07
2018-05-25T08:58:38.935Z,73.97
2018-05-25T08:59:38.909Z,74.36
2018-05-25T09:00:38.910Z,73.97
2018-05-25T09:01:38.930Z,73.78
2018-05-25T09:02:38.897Z,73.88
2018-05-25T09:03:39.231Z,73.53
2018-05-25T09:04:38.898Z,73.33
2018-05-25T09:05:38.905Z,72.85
2018-05-25T09:06:38.936Z,72.37
2018-05-25T09:07:38.878Z,72.31
2018-05-25T09:08:38.983Z,70.86
2018-05-25T09:09:39.172Z,70.76
2018-05-25T09:10:38.864Z,70.32
2018-05-25T09:11:39.135Z,69.55
2018-05-25T09:12:38.848Z,70.03
2018-05-25T09:13:38.849Z,70.03
2018-05-25T09:14:38.847Z,69.26
2018-05-25T09:15:38.862Z,68.97
2018-05-25T09:16:38.851Z,68.62
2018-05-25T09:17:40.185Z,68.13
2018-05-25T09:18:39.583Z,67.46
2018-05-25T09:19:39.546Z,67.46
2018-05-25T09:20:39.602Z,67.17
2018-05-25T09:21:38.840Z,67.07
2018-05-25T09:22:38.820Z,67.07
2018-05-25T09:23:38.832Z,66.91
2018-05-25T09:24:38.816Z,66.82
2018-05-25T09:25:38.809Z,66.33
2018-05-25T09:26:38.822Z,66.33
2018-05-25T09:27:38.818Z,66.24
2018-05-25T09:28:39.115Z,66.17
2018-05-25T09:29:38.813Z,66.36
2018-05-25T09:30:41.500Z,66.08
2018-05-25T09:31:38.814Z,66.08
2018-05-25T09:32:38.989Z,66.56
2018-05-25T09:33:38.833Z,66.56
2018-05-25T09:34:38.808Z,64.43
2018-05-25T09:35:38.801Z,64.24
2018-05-25T09:36:38.799Z,64.24
2018-05-25T09:37:38.821Z,64.05
2018-05-25T09:38:38.823Z,64.05
2018-05-25T09:39:39.039Z,64.43
2018-05-25T09:40:38.803Z,64.34
2018-05-25T09:41:38.788Z,64.43
2018-05-25T09:42:38.788Z,64.53
2018-05-25T09:43:38.781Z,64.92
2018-05-25T09:44:38.785Z,64.53
2018-05-25T09:45:38.800Z,64.43
2018-05-25T09:46:38.785Z,64.21
2018-05-25T09:47:38.784Z,64.40
2018-05-25T09:48:38.799Z,64.21
2018-05-25T09:49:38.786Z,63.82
2018-05-25T09:50:38.804Z,64.40
2018-05-25T09:51:38.810Z,64.50
2018-05-25T09:52:38.787Z,64.59
2018-05-25T09:53:38.776Z,64.01
2018-05-25T09:54:38.775Z,63.24
2018-05-25T09:55:38.783Z,63.53
2018-05-25T09:56:38.799Z,63.82
2018-05-25T09:57:38.765Z,64.08
2018-05-25T09:58:38.774Z,63.89
2018-05-25T09:59:38.771Z,63.98
2018-05-25T10:00:38.761Z,64.47
2018-05-25T10:01:38.807Z,63.98
2018-05-25T10:02:38.765Z,63.50
2018-05-25T10:03:38.760Z,63.40
2018-05-25T10:04:38.751Z,63.31
2018-05-25T10:05:38.756Z,63.98
2018-05-25T10:06:38.748Z,64.47
2018-05-25T10:07:38.882Z,64.28
2018-05-25T10:08:38.800Z,64.08
2018-05-25T10:09:38.737Z,64.47
2018-05-25T10:10:38.743Z,64.37
2018-05-25T10:11:38.725Z,64.56
2018-05-25T10:12:38.729Z,64.37
2018-05-25T10:13:38.868Z,64.66
2018-05-25T10:14:38.716Z,64.95
2018-05-25T10:15:38.733Z,64.76
2018-05-25T10:16:38.714Z,64.95
2018-05-25T10:17:38.727Z,65.85
2018-05-25T10:18:38.716Z,64.98
2018-05-25T10:19:38.733Z,65.17
2018-05-25T10:20:38.703Z,65.30
2018-05-25T10:21:38.727Z,65.30
2018-05-25T10:22:38.710Z,65.11
2018-05-25T10:23:38.706Z,65.05
2018-05-25T10:24:38.726Z,65.17
2018-05-25T10:25:38.782Z,65.08
2018-05-25T10:26:38.706Z,64.69
2018-05-25T10:27:38.701Z,64.40
2018-05-25T10:28:38.721Z,64.21
2018-05-25T10:29:38.740Z,63.66
2018-05-25T10:30:38.730Z,63.66
2018-05-25T10:31:38.709Z,62.40
2018-05-25T10:32:38.707Z,62.79
2018-05-25T10:33:38.707Z,62.21
2018-05-25T10:34:38.745Z,62.11
2018-05-25T10:35:38.713Z,61.82
2018-05-25T10:36:38.710Z,61.76
2018-05-25T10:37:38.741Z,61.76
2018-05-25T10:38:59.709Z,60.78
2018-05-25T10:39:38.710Z,60.30
2018-05-25T10:40:38.703Z,60.21
2018-05-25T10:41:38.723Z,60.40
2018-05-25T10:42:38.727Z,60.21
2018-05-25T10:43:39.640Z,60.43
2018-05-25T10:44:38.725Z,58.85
2018-05-25T10:45:38.741Z,58.75
2018-05-25T10:46:38.725Z,58.95
2018-05-25T10:47:38.702Z,59.23
2018-05-25T10:48:38.774Z,59.14
2018-05-25T10:49:39.696Z,59.23
2018-05-25T10:50:38.897Z,59.11
2018-05-25T10:51:38.710Z,60.27
2018-05-25T10:52:38.780Z,59.82
2018-05-25T10:53:38.745Z,59.82
2018-05-25T10:54:39.640Z,59.72
2018-05-25T10:55:44.138Z,60.21
2018-05-25T10:56:38.710Z,59.43
2018-05-25T10:57:38.715Z,59.23
2018-05-25T10:58:39.170Z,57.98
2018-05-25T10:59:38.837Z,57.30
2018-05-25T11:00:38.717Z,57.40
2018-05-25T11:01:38.705Z,57.59
2018-05-25T11:02:38.707Z,57.79
2018-05-25T11:03:38.743Z,57.88
2018-05-25T11:04:38.718Z,57.46
2018-05-25T11:05:38.731Z,58.04
2018-05-25T11:06:39.657Z,57.46
2018-05-25T11:07:38.708Z,58.34
2018-05-25T11:08:38.854Z,58.72
2018-05-25T11:09:38.705Z,59.11
2018-05-25T11:10:38.705Z,59.11
2018-05-25T11:11:38.704Z,59.31
2018-05-25T11:12:38.702Z,59.28
2018-05-25T11:13:38.688Z,59.38
2018-05-25T11:14:38.703Z,60.05
2018-05-25T11:15:38.699Z,60.44
2018-05-25T11:16:38.688Z,60.53
2018-05-25T11:17:38.714Z,60.63
2018-05-25T11:18:38.696Z,61.02
2018-05-25T11:19:38.787Z,61.02
2018-05-25T11:20:38.700Z,60.72
2018-05-25T11:21:38.684Z,61.21
2018-05-25T11:22:38.678Z,61.30
2018-05-25T11:23:38.685Z,61.60
2018-05-25T11:24:38.703Z,61.60
2018-05-25T11:25:38.705Z,61.79
2018-05-25T11:26:38.686Z,61.50
2018-05-25T11:27:38.672Z,60.92
2018-05-25T11:28:38.668Z,60.53
2018-05-25T11:29:38.666Z,60.44
2018-05-25T11:30:38.726Z,60.47
2018-05-25T11:31:38.716Z,58.92
2018-05-25T11:32:39.884Z,58.63
2018-05-25T11:33:38.660Z,58.92
2018-05-25T11:34:38.660Z,58.04
2018-05-25T11:35:38.666Z,57.95
2018-05-25T11:36:39.188Z,57.56
2018-05-25T11:37:38.682Z,58.24
2018-05-25T11:38:38.667Z,57.66
2018-05-25T11:39:38.666Z,57.76
2018-05-25T11:40:38.658Z,57.86
2018-05-25T11:41:38.703Z,57.95
2018-05-25T11:42:38.689Z,58.24
2018-05-25T11:43:39.169Z,58.53
2018-05-25T11:44:38.665Z,57.95
2018-05-25T11:45:38.679Z,57.88
2018-05-25T11:46:38.713Z,57.98
2018-05-25T11:47:38.670Z,57.81
2018-05-25T11:48:38.649Z,57.53
2018-05-25T11:49:43.322Z,56.49
2018-05-25T11:50:38.675Z,56.49
2018-05-25T11:51:40.189Z,54.84
2018-05-25T11:52:38.785Z,55.16
2018-05-25T11:53:38.641Z,54.58
2018-05-25T11:54:38.675Z,53.89
2018-05-25T11:55:38.704Z,54.19
2018-05-25T11:56:38.690Z,54.38
2018-05-25T11:57:38.677Z,54.28
2018-05-25T11:58:38.734Z,54.19
2018-05-25T11:59:38.698Z,53.80
2018-05-25T12:00:38.641Z,54.16
2018-05-25T12:01:38.653Z,54.16
2018-05-25T12:02:38.686Z,53.75
2018-05-25T12:03:38.640Z,53.17
2018-05-25T12:04:38.732Z,53.55
2018-05-25T12:05:38.810Z,53.65
2018-05-25T12:06:38.687Z,54.23
2018-05-25T12:07:38.698Z,54.03
2018-05-25T12:08:38.632Z,54.52
2018-05-25T12:09:38.708Z,53.23
2018-05-25T12:10:38.788Z,53.63
2018-05-25T12:11:38.617Z,53.81
2018-05-25T12:12:38.629Z,53.91
2018-05-25T12:13:38.640Z,54.49
2018-05-25T12:14:38.655Z,53.91
2018-05-25T12:15:38.621Z,54.66
2018-05-25T12:16:38.619Z,55.43
2018-05-25T12:17:38.624Z,55.63
2018-05-25T12:18:38.617Z,56.02
2018-05-25T12:19:38.612Z,56.30
2018-05-25T12:20:38.738Z,56.40
2018-05-25T12:21:38.614Z,56.40
2018-05-25T12:22:38.618Z,56.40
2018-05-25T12:23:38.612Z,56.40
2018-05-25T12:24:38.620Z,56.30
2018-05-25T12:25:38.645Z,56.50
2018-05-25T12:26:38.633Z,56.30
2018-05-25T12:27:38.609Z,56.02
2018-05-25T12:28:38.604Z,56.30
2018-05-25T12:29:38.596Z,57.08
2018-05-25T12:30:38.590Z,57.18
2018-05-25T12:31:38.639Z,57.18
2018-05-25T12:32:38.610Z,57.28
2018-05-25T12:33:38.643Z,57.44
2018-05-25T12:34:38.587Z,56.95
2018-05-25T12:35:38.590Z,56.95
2018-05-25T12:36:38.592Z,57.15
2018-05-25T12:37:38.723Z,57.63
2018-05-25T12:38:38.566Z,57.44
2018-05-25T12:39:38.578Z,57.82
2018-05-25T12:40:38.590Z,57.12
2018-05-25T12:41:38.573Z,57.60
2018-05-25T12:42:38.556Z,57.60
2018-05-25T12:43:38.576Z,57.70
2018-05-25T12:44:38.567Z,57.89
2018-05-25T12:45:38.665Z,57.60
2018-05-25T12:46:38.887Z,57.70
2018-05-25T12:47:38.759Z,57.70
2018-05-25T12:48:38.554Z,57.57
2018-05-25T12:49:38.552Z,57.70
2018-05-25T12:50:38.551Z,57.87
2018-05-25T12:51:38.580Z,58.06
2018-05-25T12:52:38.558Z,57.96
2018-05-25T12:53:38.525Z,58.83
2018-05-25T12:54:38.561Z,59.22
2018-05-25T12:55:38.540Z,58.45
2018-05-25T12:56:38.539Z,57.67
2018-05-25T12:57:38.531Z,57.57
2018-05-25T12:58:38.516Z,57.29
2018-05-25T12:59:38.543Z,58.06
2018-05-25T13:00:38.548Z,59.02
2018-05-25T13:01:38.522Z,59.22
2018-05-25T13:02:38.553Z,59.12
2018-05-25T13:03:39.281Z,59.15
2018-05-25T13:04:38.549Z,59.92
2018-05-25T13:05:38.514Z,58.86
2018-05-25T13:06:38.492Z,57.99
2018-05-25T13:07:38.505Z,57.51
2018-05-25T13:08:38.486Z,57.92
2018-05-25T13:09:38.496Z,56.47
2018-05-25T13:10:38.498Z,57.15
2018-05-25T13:11:38.489Z,55.89
2018-05-25T13:12:38.538Z,56.47
2018-05-25T13:13:38.475Z,56.47
2018-05-25T13:14:38.694Z,55.51
2018-05-25T13:15:38.451Z,55.51
2018-05-25T13:16:38.465Z,54.73
2018-05-25T13:17:38.456Z,54.53
2018-05-25T13:18:38.590Z,54.53
2018-05-25T13:19:38.460Z,54.66
2018-05-25T13:20:38.441Z,54.47
2018-05-25T13:21:38.455Z,55.05
2018-05-25T13:22:38.450Z,54.75
2018-05-25T13:23:38.453Z,54.75
2018-05-25T13:24:38.445Z,55.43
2018-05-25T13:25:38.428Z,54.37
2018-05-25T13:26:38.436Z,54.66
2018-05-25T13:27:38.433Z,53.89
2018-05-25T13:28:38.433Z,54.21
2018-05-25T13:29:38.487Z,53.50
2018-05-25T13:30:38.432Z,53.21
2018-05-25T13:31:38.415Z,53.41
2018-05-25T13:32:38.423Z,54.27
2018-05-25T13:33:38.413Z,54.47
2018-05-25T13:34:38.423Z,55.05
2018-05-25T13:35:38.442Z,55.05
2018-05-25T13:36:38.414Z,55.34
2018-05-25T13:37:38.413Z,55.53
2018-05-25T13:38:38.476Z,55.53
2018-05-25T13:39:38.405Z,56.02
2018-05-25T13:40:38.401Z,55.92
2018-05-25T13:41:38.401Z,56.11
2018-05-25T13:42:38.396Z,56.30
2018-05-25T13:43:38.394Z,56.30
2018-05-25T13:44:38.409Z,56.11
2018-05-25T13:45:38.387Z,56.02
2018-05-25T13:46:41.266Z,57.18
2018-05-25T13:47:38.458Z,56.70
2018-05-25T13:48:38.389Z,56.88
2018-05-25T13:49:38.385Z,56.79
2018-05-25T13:50:38.380Z,56.50
2018-05-25T13:51:38.831Z,56.02
2018-05-25T13:52:39.278Z,56.02
2018-05-25T13:53:38.382Z,55.82
2018-05-25T13:54:38.365Z,55.92
2018-05-25T13:55:39.257Z,56.02
2018-05-25T13:56:38.368Z,56.40
2018-05-25T13:57:38.919Z,56.47
2018-05-25T13:58:38.359Z,56.21
2018-05-25T13:59:39.324Z,55.99
2018-05-25T14:00:38.384Z,57.08
2018-05-25T14:01:38.350Z,57.05
2018-05-25T14:02:38.342Z,56.67
2018-05-25T14:03:38.407Z,57.28
2018-05-25T14:04:38.357Z,56.86
2018-05-25T14:05:38.347Z,57.34
2018-05-25T14:06:38.331Z,57.82
2018-05-25T14:07:38.340Z,57.73
2018-05-25T14:08:38.320Z,56.95
2018-05-25T14:09:38.328Z,57.44
2018-05-25T14:10:38.331Z,56.95
2018-05-25T14:11:38.319Z,57.34
2018-05-25T14:12:38.323Z,57.34
2018-05-25T14:13:38.323Z,57.73
2018-05-25T14:14:38.357Z,57.44
2018-05-25T14:15:39.282Z,57.54
2018-05-25T14:16:38.314Z,57.73
2018-05-25T14:17:38.318Z,57.54
2018-05-25T14:18:38.314Z,58.02
2018-05-25T14:19:40.269Z,57.82
2018-05-25T14:20:38.297Z,57.92
2018-05-25T14:21:38.308Z,57.76
2018-05-25T14:22:39.256Z,57.63
2018-05-25T14:23:38.285Z,57.63
2018-05-25T14:24:38.287Z,57.86
2018-05-25T14:25:38.275Z,57.86
2018-05-25T14:28:15.002Z,58.34
2018-05-25T14:29:15.119Z,57.46
2018-05-25T14:30:16.419Z,57.28
2018-05-25T14:31:14.988Z,57.28
2018-05-25T14:32:15.017Z,56.79
2018-05-25T14:33:15.145Z,57.18
2018-05-25T14:34:14.999Z,56.40
2018-05-25T14:35:14.965Z,56.50
2018-05-25T14:36:14.963Z,56.79
2018-05-25T14:37:14.984Z,56.88
2018-05-25T14:38:14.963Z,56.98
2018-05-25T14:39:14.950Z,56.40
2018-05-25T14:40:14.966Z,56.50
2018-05-25T14:41:14.949Z,56.60
2018-05-25T14:42:15.006Z,56.30
2018-05-25T14:43:14.944Z,56.30
2018-05-25T14:44:14.955Z,56.21
2018-05-25T14:45:14.948Z,56.11
2018-05-25T14:46:14.933Z,56.50
2018-05-25T14:47:15.032Z,56.02
2018-05-25T14:48:14.964Z,55.60
2018-05-25T14:49:14.922Z,55.15
2018-05-25T14:50:14.936Z,55.02
2018-05-25T14:51:14.928Z,55.34
2018-05-25T14:52:15.087Z,55.60
2018-05-25T14:53:14.916Z,55.31
2018-05-25T14:54:14.929Z,55.21
2018-05-25T14:55:14.907Z,55.99
2018-05-25T14:56:14.916Z,56.47
2018-05-25T14:57:14.904Z,56.28
2018-05-25T14:58:14.920Z,57.05
2018-05-25T14:59:14.933Z,57.15
2018-05-25T15:00:14.977Z,56.86
2018-05-25T15:01:14.898Z,57.05
2018-05-25T15:02:14.902Z,57.34
2018-05-25T15:03:14.882Z,57.15
2018-05-25T15:04:15.024Z,57.15
2018-05-25T15:05:14.886Z,57.05
2018-05-25T15:06:14.876Z,57.15
2018-05-25T15:07:14.885Z,57.15
2018-05-25T15:08:14.869Z,57.63
2018-05-25T15:09:14.876Z,57.54
2018-05-25T15:10:14.872Z,57.54
2018-05-25T15:11:14.871Z,57.73
2018-05-25T15:12:14.869Z,58.21
2018-05-25T15:13:14.862Z,58.02
2018-05-25T15:14:14.853Z,57.99
2018-05-25T15:15:14.897Z,58.12
2018-05-25T15:16:14.846Z,58.31